Time;durP1;ratioP1;P1;durP2;ratioP2;P2;SDS_P1;SDS_P2;PMS_P1;PMS_P2;Temp;Humidity;BMP_temperature;BMP_pressure;BME280_temperature;BME280_humidity;BME280_pressure;Samples;Min_cycle;Max_cycle;Signal;HPM_P1;HPM_P2
2023/09/12 00:01:10;;;;;;;;;;;;;;;;;;5043786;28;20343;-69
2023/09/12 00:03:36;;;;;;;;;;;;;;;;;;5030441;28;20020;-69
2023/09/12 00:06:02;;;;;;;;;;;;;;;;;;5047647;28;19931;-69
2023/09/12 00:08:28;;;;;;;;;;;;;;;;;;5049754;28;20291;-69
2023/09/12 00:10:54;;;;;;;;;;;;;;;;;;5045645;28;20067;-68
2023/09/12 00:13:20;;;;;;;;;;;;;;;;;;5048075;28;19921;-69
2023/09/12 00:15:45;;;;;;;;;;;;;;;;;;5051764;28;19925;-69
2023/09/12 00:18:12;;;;;;;;;;;;;;;;;;5046920;28;19920;-69
2023/09/12 00:20:38;;;;;;;;;;;;;;;;;;5027635;28;19920;-67
2023/09/12 00:23:05;;;;;;;;;;;;;;;;;;5060946;22;19932;-64
2023/09/12 00:25:30;;;;;;;;;;;;;;;;;;5049939;28;19959;-64
2023/09/12 00:27:56;;;;;;;;;;;;;;;;;;5053473;28;19967;-64
2023/09/12 00:30:22;;;;;;;;;;;;;;;;;;5048684;28;20015;-65
2023/09/12 00:32:48;;;;;;;;;;;;;;;;;;5056014;28;19925;-64
2023/09/12 00:35:14;;;;;;;;;;;;;;;;;;5053999;28;20315;-64
2023/09/12 00:37:40;;;;;;;;;;;;;;;;;;5049229;28;19931;-64
2023/09/12 00:40:06;;;;;;;;;;;;;;;;;;5048106;28;19928;-65
2023/09/12 00:42:32;;;;;;;;;;;;;;;;;;5033932;28;20274;-65
2023/09/12 00:44:58;;;;;;;;;;;;;;;;;;5059313;28;19975;-64
2023/09/12 00:47:23;;;;;;;;;;;;;;;;;;5063330;28;19921;-64
2023/09/12 00:49:49;;;;;;;;;;;;;;;;;;5053657;28;20004;-65
2023/09/12 00:52:15;;;;;;;;;;;;;;;;;;5051572;28;19925;-64
2023/09/12 00:54:41;;;;;;;;;;;;;;;;;;5036453;28;19971;-64
2023/09/12 00:57:07;;;;;;;;;;;;;;;;;;5056024;28;19944;-64
2023/09/12 00:59:33;;;;;;;;;;;;;;;;;;5057691;28;20023;-65
2023/09/12 01:01:59;;;;;;;;;;;;;;;;;;5053819;28;19995;-65
2023/09/12 01:04:25;;;;;;;;;;;;;;;;;;5062480;28;19936;-64
2023/09/12 01:06:51;;;;;;;;;;;;;;;;;;5054818;28;19921;-64
2023/09/12 01:09:17;;;;;;;;;;;;;;;;;;5061877;28;19990;-64
2023/09/12 01:11:43;;;;;;;;;;;;;;;;;;5051168;28;20231;-65
2023/09/12 01:14:08;;;;;;;;;;;;;;;;;;5034523;28;19921;-65
2023/09/12 01:16:34;;;;;;;;;;;;;;;;;;5053364;28;19931;-65
2023/09/12 01:19:00;;;;;;;;;;;;;;;;;;5053205;28;20019;-65
2023/09/12 01:21:26;;;;;;;;;;;;;;;;;;5054215;28;20358;-65
2023/09/12 01:23:52;;;;;;;;;;;;;;;;;;5033278;28;19931;-65
2023/09/12 01:26:18;;;;;;;;;;;;;;;;;;5051143;28;20309;-65
2023/09/12 01:28:44;;;;;;;;;;;;;;;;;;5026652;28;20008;-65
2023/09/12 01:31:10;;;;;;;;;;;;;;;;;;5057761;28;20023;-65
2023/09/12 01:33:36;;;;;;;;;;;;;;;;;;5042269;28;19928;-65
2023/09/12 01:36:02;;;;;;;;;;;;;;;;;;5051909;28;19928;-65
2023/09/12 01:38:29;;;;;;;;;;;;;;;;;;5041259;28;19924;-66
2023/09/12 01:40:55;;;;;;;;;;;;;;;;;;5051899;28;19933;-65
2023/09/12 01:43:21;;;;;;;;;;;;;;;;;;5055524;28;20019;-65
2023/09/12 01:45:47;;;;;;;;;;;;;;;;;;5018915;28;19920;-65
2023/09/12 01:48:13;;;;;;;;;;;;;;;;;;5049693;28;19921;-65
2023/09/12 01:50:39;;;;;;;;;;;;;;;;;;5021610;28;19967;-66
2023/09/12 01:53:05;;;;;;;;;;;;;;;;;;5036930;28;19929;-65
2023/09/12 01:55:31;;;;;;;;;;;;;;;;;;5053545;28;20369;-65
2023/09/12 01:57:57;;;;;;;;;;;;;;;;;;5058133;28;20012;-65
2023/09/12 02:00:23;;;;;;;;;;;;;;;;;;5031173;28;19936;-65
2023/09/12 02:02:49;;;;;;;;;;;;;;;;;;5052522;28;19921;-65
2023/09/12 02:05:17;;;;;;;;;;;;;;;;;;5052688;28;19929;-65
2023/09/12 02:07:43;;;;;;;;;;;;;;;;;;5053421;28;19941;-65
2023/09/12 02:10:09;;;;;;;;;;;;;;;;;;5055913;28;19943;-65
2023/09/12 02:12:35;;;;;;;;;;;;;;;;;;5043304;28;19935;-65
2023/09/12 02:15:01;;;;;;;;;;;;;;;;;;5050112;28;19929;-65
2023/09/12 02:17:27;;;;;;;;;;;;;;;;;;5035026;28;19921;-65
2023/09/12 02:19:53;;;;;;;;;;;;;;;;;;5043204;28;19925;-65
2023/09/12 02:22:19;;;;;;;;;;;;;;;;;;5034600;28;19924;-65
2023/09/12 02:24:45;;;;;;;;;;;;;;;;;;5048356;28;20488;-65
2023/09/12 02:27:10;;;;;;;;;;;;;;;;;;5061305;28;20358;-66
2023/09/12 02:29:36;;;;;;;;;;;;;;;;;;5026383;28;19925;-65
2023/09/12 02:32:02;;;;;;;;;;;;;;;;;;5044822;28;19928;-65
2023/09/12 02:34:28;;;;;;;;;;;;;;;;;;5057389;28;19982;-66
2023/09/12 02:36:54;;;;;;;;;;;;;;;;;;5050211;28;19921;-65
2023/09/12 02:39:20;;;;;;;;;;;;;;;;;;5033597;28;19967;-65
2023/09/12 02:41:46;;;;;;;;;;;;;;;;;;5062951;28;19963;-66
2023/09/12 02:44:12;;;;;;;;;;;;;;;;;;5038349;28;19920;-67
2023/09/12 02:46:38;;;;;;;;;;;;;;;;;;5062210;28;19920;-66
2023/09/12 02:49:03;;;;;;;;;;;;;;;;;;5050942;28;20213;-66
2023/09/12 02:51:30;;;;;;;;;;;;;;;;;;5049471;28;19925;-65
2023/09/12 02:53:56;;;;;;;;;;;;;;;;;;5061255;28;19971;-65
2023/09/12 02:56:22;;;;;;;;;;;;;;;;;;5041546;28;19968;-65
2023/09/12 02:58:48;;;;;;;;;;;;;;;;;;5049131;28;19979;-65
2023/09/12 03:01:14;;;;;;;;;;;;;;;;;;5056140;28;19924;-66
2023/09/12 03:03:40;;;;;;;;;;;;;;;;;;5025565;28;19921;-65
2023/09/12 03:06:06;;;;;;;;;;;;;;;;;;5053132;28;19920;-65
2023/09/12 03:08:32;;;;;;;;;;;;;;;;;;5048904;28;19973;-65
2023/09/12 03:10:58;;;;;;;;;;;;;;;;;;5048877;28;19943;-65
2023/09/12 03:13:24;;;;;;;;;;;;;;;;;;5044397;28;19936;-65
2023/09/12 03:15:49;;;;;;;;;;;;;;;;;;5043069;28;19921;-66
2023/09/12 03:18:15;;;;;;;;;;;;;;;;;;5049450;28;20177;-66
2023/09/12 03:20:41;;;;;;;;;;;;;;;;;;5050619;28;19979;-65
2023/09/12 03:23:07;;;;;;;;;;;;;;;;;;5050425;28;19925;-65
2023/09/12 03:25:33;;;;;;;;;;;;;;;;;;5054688;28;20367;-65
2023/09/12 03:27:59;;;;;;;;;;;;;;;;;;5060619;28;20007;-66
2023/09/12 03:30:25;;;;;;;;;;;;;;;;;;5052907;28;20500;-66
2023/09/12 03:32:51;;;;;;;;;;;;;;;;;;5045626;28;19921;-65
2023/09/12 03:35:17;;;;;;;;;;;;;;;;;;5015364;28;20015;-65
2023/09/12 03:37:43;;;;;;;;;;;;;;;;;;5025864;28;19928;-66
2023/09/12 03:40:08;;;;;;;;;;;;;;;;;;5059539;28;20011;-65
2023/09/12 03:42:34;;;;;;;;;;;;;;;;;;5049200;28;20374;-65
2023/09/12 03:45:00;;;;;;;;;;;;;;;;;;5049057;28;19973;-65
2023/09/12 03:47:26;;;;;;;;;;;;;;;;;;5053249;28;20278;-65
2023/09/12 03:49:52;;;;;;;;;;;;;;;;;;5051764;28;19921;-65
2023/09/12 03:52:18;;;;;;;;;;;;;;;;;;5055684;28;19990;-65
2023/09/12 03:54:44;;;;;;;;;;;;;;;;;;5032680;28;19966;-66
2023/09/12 03:57:10;;;;;;;;;;;;;;;;;;5047743;28;19924;-65
2023/09/12 03:59:36;;;;;;;;;;;;;;;;;;5038992;28;19928;-65
2023/09/12 04:02:01;;;;;;;;;;;;;;;;;;5055265;28;19921;-65
2023/09/12 04:04:27;;;;;;;;;;;;;;;;;;5053358;28;20060;-65
2023/09/12 04:06:54;;;;;;;;;;;;;;;;;;5038285;28;19925;-65
2023/09/12 04:09:20;;;;;;;;;;;;;;;;;;5044112;28;19927;-65
2023/09/12 04:11:46;;;;;;;;;;;;;;;;;;5051114;28;19921;-65
2023/09/12 04:14:12;;;;;;;;;;;;;;;;;;5054987;28;19925;-65
2023/09/12 04:16:38;;;;;;;;;;;;;;;;;;5050243;28;19975;-65
2023/09/12 04:19:04;;;;;;;;;;;;;;;;;;5055012;28;20024;-65
2023/09/12 04:21:30;;;;;;;;;;;;;;;;;;5048629;28;19929;-65
2023/09/12 04:23:55;;;;;;;;;;;;;;;;;;5037962;28;20333;-65
2023/09/12 04:26:21;;;;;;;;;;;;;;;;;;5052493;28;19925;-65
2023/09/12 04:28:47;;;;;;;;;;;;;;;;;;5051514;28;19944;-65
2023/09/12 04:31:13;;;;;;;;;;;;;;;;;;5051784;28;20366;-66
2023/09/12 04:33:39;;;;;;;;;;;;;;;;;;5052335;28;19931;-66
2023/09/12 04:36:05;;;;;;;;;;;;;;;;;;5053494;28;20408;-66
2023/09/12 04:38:32;;;;;;;;;;;;;;;;;;5053890;28;19975;-63
2023/09/12 04:41:04;;;;;;;;;;;;;;;;;;5053916;28;19929;-65
2023/09/12 04:43:30;;;;;;;;;;;;;;;;;;5035400;28;19921;-64
2023/09/12 04:45:56;;;;;;;;;;;;;;;;;;5053911;28;19921;-65
2023/09/12 04:48:22;;;;;;;;;;;;;;;;;;5053629;28;19936;-65
2023/09/12 04:50:48;;;;;;;;;;;;;;;;;;5054128;28;20370;-64
2023/09/12 04:53:14;;;;;;;;;;;;;;;;;;5036928;28;19928;-65
2023/09/12 04:55:40;;;;;;;;;;;;;;;;;;5049005;28;20011;-64
2023/09/12 04:58:06;;;;;;;;;;;;;;;;;;5053006;28;19920;-64
2023/09/12 05:00:31;;;;;;;;;;;;;;;;;;5053262;28;19928;-64
2023/09/12 05:02:57;;;;;;;;;;;;;;;;;;5035689;28;19921;-65
2023/09/12 05:05:23;;;;;;;;;;;;;;;;;;5053238;28;19932;-65
2023/09/12 05:07:49;;;;;;;;;;;;;;;;;;5053050;28;20285;-65
2023/09/12 05:10:15;;;;;;;;;;;;;;;;;;5036380;28;19991;-65
2023/09/12 05:12:41;;;;;;;;;;;;;;;;;;5053446;28;19925;-65
2023/09/12 05:15:07;;;;;;;;;;;;;;;;;;5050096;28;19929;-65
2023/09/12 05:17:33;;;;;;;;;;;;;;;;;;5050456;28;20322;-65
2023/09/12 05:19:59;;;;;;;;;;;;;;;;;;5034013;28;19936;-65
2023/09/12 05:22:25;;;;;;;;;;;;;;;;;;5034573;28;19924;-65
2023/09/12 05:24:51;;;;;;;;;;;;;;;;;;5051848;28;20019;-65
2023/09/12 05:27:17;;;;;;;;;;;;;;;;;;5051957;28;19925;-65
2023/09/12 05:29:42;;;;;;;;;;;;;;;;;;5052269;28;20367;-65
2023/09/12 05:32:08;;;;;;;;;;;;;;;;;;5052067;28;19921;-65
2023/09/12 05:34:34;;;;;;;;;;;;;;;;;;5051823;28;20286;-65
2023/09/12 05:37:00;;;;;;;;;;;;;;;;;;5034787;28;20003;-65
2023/09/12 05:39:26;;;;;;;;;;;;;;;;;;5052607;28;20338;-65
2023/09/12 05:41:52;;;;;;;;;;;;;;;;;;5052132;28;19921;-65
2023/09/12 05:44:18;;;;;;;;;;;;;;;;;;5052574;28;20336;-65
2023/09/12 05:46:44;;;;;;;;;;;;;;;;;;5034772;28;19924;-65
2023/09/12 05:49:10;;;;;;;;;;;;;;;;;;5052035;28;19966;-65
2023/09/12 05:51:36;;;;;;;;;;;;;;;;;;5050919;28;19925;-65
2023/09/12 05:54:03;;;;;;;;;;;;;;;;;;5052355;28;19996;-65
2023/09/12 05:56:29;;;;;;;;;;;;;;;;;;5051866;28;19925;-65
2023/09/12 05:58:55;;;;;;;;;;;;;;;;;;5052247;28;19947;-65
2023/09/12 06:01:20;;;;;;;;;;;;;;;;;;5052534;28;20100;-65
2023/09/12 06:03:46;;;;;;;;;;;;;;;;;;5016283;28;19928;-65
2023/09/12 06:06:12;;;;;;;;;;;;;;;;;;5051789;28;19971;-65
2023/09/12 06:08:38;;;;;;;;;;;;;;;;;;5033569;28;19928;-65
2023/09/12 06:11:04;;;;;;;;;;;;;;;;;;5051477;28;19920;-65
2023/09/12 06:13:32;;;;;;;;;;;;;;;;;;5050218;28;19921;-64
2023/09/12 06:15:58;;;;;;;;;;;;;;;;;;5051653;28;19994;-64
2023/09/12 06:18:24;;;;;;;;;;;;;;;;;;5046958;28;20011;-65
2023/09/12 06:20:50;;;;;;;;;;;;;;;;;;5049166;28;19998;-65
2023/09/12 06:23:16;;;;;;;;;;;;;;;;;;5051238;28;21265;-65
2023/09/12 06:25:42;;;;;;;;;;;;;;;;;;5051399;28;20013;-64
2023/09/12 06:28:08;;;;;;;;;;;;;;;;;;5050343;28;19948;-64
2023/09/12 06:30:33;;;;;;;;;;;;;;;;;;5047529;28;19935;-65
2023/09/12 06:32:59;;;;;;;;;;;;;;;;;;5050213;28;19921;-64
2023/09/12 06:35:26;;;;;;;;;;;;;;;;;;5048135;28;19975;-64
2023/09/12 06:37:51;;;;;;;;;;;;;;;;;;5048919;28;19921;-64
2023/09/12 06:40:17;;;;;;;;;;;;;;;;;;5048607;28;19929;-65
2023/09/12 06:42:43;;;;;;;;;;;;;;;;;;5049073;28;20324;-65
2023/09/12 06:45:09;;;;;;;;;;;;;;;;;;5050218;28;19970;-65
2023/09/12 06:47:35;;;;;;;;;;;;;;;;;;5050827;28;20294;-64
2023/09/12 06:50:01;;;;;;;;;;;;;;;;;;5032564;28;19921;-66
2023/09/12 06:52:27;;;;;;;;;;;;;;;;;;5050926;28;20022;-65
2023/09/12 06:54:53;;;;;;;;;;;;;;;;;;5047645;28;19921;-65
2023/09/12 06:57:18;;;;;;;;;;;;;;;;;;5050944;28;19921;-65
2023/09/12 06:59:44;;;;;;;;;;;;;;;;;;5049172;28;19925;-65
2023/09/12 07:02:12;;;;;;;;;;;;;;;;;;5031925;28;19921;-65
2023/09/12 07:04:38;;;;;;;;;;;;;;;;;;5050681;28;20409;-65
2023/09/12 07:07:04;;;;;;;;;;;;;;;;;;5054777;28;19968;-65
2023/09/12 07:09:30;;;;;;;;;;;;;;;;;;5050661;28;19950;-65
2023/09/12 07:11:56;;;;;;;;;;;;;;;;;;5054399;28;19921;-65
2023/09/12 07:14:23;;;;;;;;;;;;;;;;;;5046921;28;19921;-65
2023/09/12 07:16:49;;;;;;;;;;;;;;;;;;5053479;28;20286;-65
2023/09/12 07:19:15;;;;;;;;;;;;;;;;;;5050025;28;19928;-65
2023/09/12 07:21:41;;;;;;;;;;;;;;;;;;5054286;28;19925;-65
2023/09/12 07:24:07;;;;;;;;;;;;;;;;;;5031383;28;20047;-62
2023/09/12 07:26:33;;;;;;;;;;;;;;;;;;5047911;28;19940;-61
2023/09/12 07:29:04;;;;;;;;;;;;;;;;;;5044443;28;19928;-61
2023/09/12 07:31:29;;;;;;;;;;;;;;;;;;5049564;28;19924;-62
2023/09/12 07:33:55;;;;;;;;;;;;;;;;;;5049008;28;19932;-61
2023/09/12 07:36:21;;;;;;;;;;;;;;;;;;5051449;28;19928;-61
2023/09/12 07:38:48;;;;;;;;;;;;;;;;;;5037905;28;19929;-61
2023/09/12 07:41:14;;;;;;;;;;;;;;;;;;5051444;28;19978;-61
2023/09/12 07:43:40;;;;;;;;;;;;;;;;;;5033567;28;20615;-62
2023/09/12 07:46:06;;;;;;;;;;;;;;;;;;5044997;28;19925;-62
2023/09/12 07:48:32;;;;;;;;;;;;;;;;;;5052932;28;19921;-62
2023/09/12 07:50:58;;;;;;;;;;;;;;;;;;5036528;28;19921;-62
2023/09/12 07:53:24;;;;;;;;;;;;;;;;;;5054677;28;19931;-62
2023/09/12 07:55:50;;;;;;;;;;;;;;;;;;5054536;28;19924;-62
2023/09/12 07:58:18;;;;;;;;;;;;;;;;;;5054662;28;20373;-62
2023/09/12 08:00:44;;;;;;;;;;;;;;;;;;5054284;28;19928;-62
2023/09/12 08:03:10;;;;;;;;;;;;;;;;;;5054836;28;19924;-62
2023/09/12 08:05:36;;;;;;;;;;;;;;;;;;5054495;28;19978;-62
2023/09/12 08:08:02;;;;;;;;;;;;;;;;;;5054837;28;19995;-62
2023/09/12 08:10:28;;;;;;;;;;;;;;;;;;5054349;28;19971;-62
2023/09/12 08:12:56;;;;;;;;;;;;;;;;;;5051823;28;22362;-62
2023/09/12 08:15:22;;;;;;;;;;;;;;;;;;5050587;28;19925;-62
2023/09/12 08:17:51;;;;;;;;;;;;;;;;;;5052143;28;19924;-62
2023/09/12 08:20:17;;;;;;;;;;;;;;;;;;5027881;28;19932;-62
2023/09/12 08:22:43;;;;;;;;;;;;;;;;;;5050256;28;20401;-62
2023/09/12 08:25:10;;;;;;;;;;;;;;;;;;5050597;28;19925;-62
2023/09/12 08:27:35;;;;;;;;;;;;;;;;;;5053093;28;19928;-62
2023/09/12 08:30:01;;;;;;;;;;;;;;;;;;5056523;28;20304;-62
2023/09/12 08:32:27;;;;;;;;;;;;;;;;;;5052161;28;19971;-60
2023/09/12 08:34:53;;;;;;;;;;;;;;;;;;5053513;28;19968;-61
2023/09/12 08:37:19;;;;;;;;;;;;;;;;;;5053032;28;19927;-61
2023/09/12 08:39:45;;;;;;;;;;;;;;;;;;5037979;28;19924;-60
2023/09/12 08:42:11;;;;;;;;;;;;;;;;;;5019940;28;19971;-61
2023/09/12 08:44:37;;;;;;;;;;;;;;;;;;5053248;28;19921;-61
2023/09/12 08:47:03;;;;;;;;;;;;;;;;;;5053554;28;20449;-61
2023/09/12 08:49:29;;;;;;;;;;;;;;;;;;5050080;28;19925;-61
2023/09/12 08:51:55;;;;;;;;;;;;;;;;;;5053095;28;19935;-61
2023/09/12 08:54:21;;;;;;;;;;;;;;;;;;5035249;28;20269;-61
2023/09/12 08:56:47;;;;;;;;;;;;;;;;;;5051267;28;19925;-61
2023/09/12 08:59:13;;;;;;;;;;;;;;;;;;5050481;28;19971;-61
2023/09/12 09:01:39;;;;;;;;;;;;;;;;;;5049961;28;19929;-61
2023/09/12 09:04:05;;;;;;;;;;;;;;;;;;5045527;28;20012;-61
2023/09/12 09:06:32;;;;;;;;;;;;;;;;;;5062758;28;20618;-61
2023/09/12 09:08:58;;;;;;;;;;;;;;;;;;5034898;28;20011;-61
2023/09/12 09:11:27;;;;;;;;;;;;;;;;;;5051276;28;20011;-61
2023/09/12 09:13:53;;;;;;;;;;;;;;;;;;5053732;28;19963;-61
2023/09/12 09:16:21;;;;;;;;;;;;;;;;;;5051793;28;19968;-61
2023/09/12 09:18:46;;;;;;;;;;;;;;;;;;5055241;28;19925;-61
2023/09/12 09:21:12;;;;;;;;;;;;;;;;;;5049645;28;19931;-61
2023/09/12 09:23:38;;;;;;;;;;;;;;;;;;5042977;28;19928;-61
2023/09/12 09:26:06;;;;;;;;;;;;;;;;;;5056179;28;19974;-61
2023/09/12 09:28:32;;;;;;;;;;;;;;;;;;5052773;28;19971;-62
2023/09/12 09:30:58;;;;;;;;;;;;;;;;;;5032491;28;19969;-61
2023/09/12 09:33:24;;;;;;;;;;;;;;;;;;5052381;28;19924;-61
2023/09/12 09:35:51;;;;;;;;;;;;;;;;;;5044658;28;19921;-61
2023/09/12 09:38:18;;;;;;;;;;;;;;;;;;5055135;28;20400;-61
2023/09/12 09:40:44;;;;;;;;;;;;;;;;;;5030477;28;19972;-61
2023/09/12 09:43:10;;;;;;;;;;;;;;;;;;5049965;28;19964;-61
2023/09/12 09:45:36;;;;;;;;;;;;;;;;;;5050635;28;19935;-61
2023/09/12 09:48:02;;;;;;;;;;;;;;;;;;5049003;28;19951;-61
2023/09/12 09:50:28;;;;;;;;;;;;;;;;;;5043427;28;19921;-61
2023/09/12 09:52:54;;;;;;;;;;;;;;;;;;5055512;28;19930;-61
2023/09/12 09:55:20;;;;;;;;;;;;;;;;;;5048994;28;19928;-61
2023/09/12 09:57:48;;;;;;;;;;;;;;;;;;5050881;28;19921;-61
2023/09/12 10:00:14;;;;;;;;;;;;;;;;;;5042616;28;20298;-61
2023/09/12 10:02:40;;;;;;;;;;;;;;;;;;5054921;28;19931;-61
2023/09/12 10:05:06;;;;;;;;;;;;;;;;;;5052020;28;20007;-61
2023/09/12 10:07:32;;;;;;;;;;;;;;;;;;5048972;28;19920;-61
2023/09/12 10:09:58;;;;;;;;;;;;;;;;;;5047854;28;19921;-61
2023/09/12 10:12:24;;;;;;;;;;;;;;;;;;5017167;28;19974;-60
2023/09/12 10:14:50;;;;;;;;;;;;;;;;;;5056370;28;20106;-61
2023/09/12 10:17:16;;;;;;;;;;;;;;;;;;5048293;28;19932;-61
2023/09/12 10:19:42;;;;;;;;;;;;;;;;;;5028594;28;19921;-60
2023/09/12 10:22:07;;;;;;;;;;;;;;;;;;5049231;28;20053;-61
2023/09/12 10:24:33;;;;;;;;;;;;;;;;;;5044146;28;19925;-61
2023/09/12 10:26:59;;;;;;;;;;;;;;;;;;5045569;28;20015;-61
2023/09/12 10:29:25;;;;;;;;;;;;;;;;;;5045245;28;19925;-61
2023/09/12 10:31:51;;;;;;;;;;;;;;;;;;5047257;28;19931;-61
2023/09/12 10:34:17;;;;;;;;;;;;;;;;;;5047384;28;20366;-61
2023/09/12 10:36:43;;;;;;;;;;;;;;;;;;5031479;28;20021;-61
2023/09/12 10:39:09;;;;;;;;;;;;;;;;;;5050103;28;19920;-61
2023/09/12 10:41:35;;;;;;;;;;;;;;;;;;5049778;28;19937;-61
2023/09/12 10:44:01;;;;;;;;;;;;;;;;;;5047376;28;19929;-61
2023/09/12 10:46:27;;;;;;;;;;;;;;;;;;5024240;28;20321;-61
2023/09/12 10:48:53;;;;;;;;;;;;;;;;;;5043129;28;19920;-61
2023/09/12 10:51:19;;;;;;;;;;;;;;;;;;5044164;28;21381;-61
2023/09/12 10:53:46;;;;;;;;;;;;;;;;;;5027188;28;19986;-61
2023/09/12 10:56:11;;;;;;;;;;;;;;;;;;5047003;28;20669;-61
2023/09/12 10:58:37;;;;;;;;;;;;;;;;;;5043741;28;19924;-61
2023/09/12 11:01:04;;;;;;;;;;;;;;;;;;5049275;28;19931;-61
2023/09/12 11:03:30;;;;;;;;;;;;;;;;;;5052432;28;20027;-61
2023/09/12 11:05:56;;;;;;;;;;;;;;;;;;5056047;28;20031;-62
2023/09/12 11:08:22;;;;;;;;;;;;;;;;;;5037874;28;19921;-61
2023/09/12 11:10:48;;;;;;;;;;;;;;;;;;5047950;28;20015;-62
2023/09/12 11:13:14;;;;;;;;;;;;;;;;;;5045893;28;20032;-61
2023/09/12 11:15:40;;;;;;;;;;;;;;;;;;5029657;28;20551;-62
2023/09/12 11:18:06;;;;;;;;;;;;;;;;;;5043875;28;19929;-62
2023/09/12 11:20:32;;;;;;;;;;;;;;;;;;5045999;28;19929;-62
2023/09/12 11:22:58;;;;;;;;;;;;;;;;;;5044275;28;19937;-61
2023/09/12 11:25:25;;;;;;;;;;;;;;;;;;5049517;28;19925;-61
2023/09/12 11:27:51;;;;;;;;;;;;;;;;;;5025400;28;19925;-61
2023/09/12 11:30:17;;;;;;;;;;;;;;;;;;5032676;28;19920;-61
2023/09/12 11:32:43;;;;;;;;;;;;;;;;;;5028249;28;19983;-61
2023/09/12 11:35:09;;;;;;;;;;;;;;;;;;5049430;28;19968;-62
2023/09/12 11:37:38;;;;;;;;;;;;;;;;;;5049746;28;19928;-61
2023/09/12 11:40:04;;;;;;;;;;;;;;;;;;5044118;28;19928;-61
2023/09/12 11:42:29;;;;;;;;;;;;;;;;;;5055526;28;20310;-61
2023/09/12 11:44:55;;;;;;;;;;;;;;;;;;5048834;28;19967;-61
2023/09/12 11:47:21;;;;;;;;;;;;;;;;;;5053987;28;19925;-61
2023/09/12 11:49:47;;;;;;;;;;;;;;;;;;5044837;28;19929;-61
2023/09/12 11:52:14;;;;;;;;;;;;;;;;;;5045271;28;19925;-62
2023/09/12 11:54:41;;;;;;;;;;;;;;;;;;5053027;28;20328;-61
2023/09/12 11:57:07;;;;;;;;;;;;;;;;;;5053350;28;19928;-61
2023/09/12 11:59:35;;;;;;;;;;;;;;;;;;5050896;28;19924;-62
2023/09/12 12:02:01;;;;;;;;;;;;;;;;;;5036552;28;19925;-61
2023/09/12 12:04:27;;;;;;;;;;;;;;;;;;5053869;28;19978;-61
2023/09/12 12:06:52;;;;;;;;;;;;;;;;;;5036973;28;20310;-62
2023/09/12 12:09:19;;;;;;;;;;;;;;;;;;5050900;28;19921;-61
2023/09/12 12:11:45;;;;;;;;;;;;;;;;;;5053309;28;19924;-61
2023/09/12 12:14:11;;;;;;;;;;;;;;;;;;5053476;28;20015;-61
2023/09/12 12:16:37;;;;;;;;;;;;;;;;;;5048098;28;19996;-62
2023/09/12 12:19:03;;;;;;;;;;;;;;;;;;5051774;28;19968;-61
2023/09/12 12:21:29;;;;;;;;;;;;;;;;;;5056341;28;19950;-61
2023/09/12 12:23:55;;;;;;;;;;;;;;;;;;5050365;28;19990;-61
2023/09/12 12:26:21;;;;;;;;;;;;;;;;;;5044625;28;19925;-61
2023/09/12 12:28:47;;;;;;;;;;;;;;;;;;5042955;28;19931;-61
2023/09/12 12:31:12;;;;;;;;;;;;;;;;;;5051340;28;19925;-61
2023/09/12 12:33:38;;;;;;;;;;;;;;;;;;5041091;28;20375;-61
2023/09/12 12:36:04;;;;;;;;;;;;;;;;;;5057536;28;19928;-61
2023/09/12 12:38:30;;;;;;;;;;;;;;;;;;5063979;22;19933;-66
2023/09/12 12:40:56;;;;;;;;;;;;;;;;;;5045542;28;20365;-66
2023/09/12 12:43:22;;;;;;;;;;;;;;;;;;5051812;28;20058;-66
2023/09/12 12:45:48;;;;;;;;;;;;;;;;;;5031901;28;19928;-66
2023/09/12 12:48:14;;;;;;;;;;;;;;;;;;5016166;28;19925;-66
2023/09/12 12:50:42;;;;;;;;;;;;;;;;;;5056839;28;20393;-66
2023/09/12 12:53:08;;;;;;;;;;;;;;;;;;5039775;28;19925;-67
2023/09/12 12:55:35;;;;;;;;;;;;;;;;;;5050965;28;19940;-66
2023/09/12 12:58:00;;;;;;;;;;;;;;;;;;5052275;28;19924;-67
2023/09/12 13:00:26;;;;;;;;;;;;;;;;;;5048817;28;20397;-66
2023/09/12 13:02:52;;;;;;;;;;;;;;;;;;5034826;28;19924;-67
2023/09/12 13:05:18;;;;;;;;;;;;;;;;;;5030995;28;19922;-66
2023/09/12 13:07:44;;;;;;;;;;;;;;;;;;5059621;28;19920;-67
2023/09/12 13:10:10;;;;;;;;;;;;;;;;;;5036559;28;19948;-66
2023/09/12 13:12:37;;;;;;;;;;;;;;;;;;5053615;28;20130;-67
2023/09/12 13:15:03;;;;;;;;;;;;;;;;;;5034016;28;19924;-66
2023/09/12 13:17:29;;;;;;;;;;;;;;;;;;5057696;28;19932;-66
2023/09/12 13:19:55;;;;;;;;;;;;;;;;;;5052835;28;19921;-66
2023/09/12 13:22:20;;;;;;;;;;;;;;;;;;5049378;28;19921;-67
2023/09/12 13:24:47;;;;;;;;;;;;;;;;;;5047061;28;20015;-66
2023/09/12 13:27:13;;;;;;;;;;;;;;;;;;5044666;28;19972;-67
2023/09/12 13:29:39;;;;;;;;;;;;;;;;;;5056835;28;19968;-66
2023/09/12 13:32:05;;;;;;;;;;;;;;;;;;5048817;28;19932;-67
2023/09/12 13:34:31;;;;;;;;;;;;;;;;;;5048772;28;19924;-67
2023/09/12 13:36:58;;;;;;;;;;;;;;;;;;5052757;28;20683;-66
2023/09/12 13:39:24;;;;;;;;;;;;;;;;;;5040678;28;19929;-66
2023/09/12 13:41:49;;;;;;;;;;;;;;;;;;5044897;28;19932;-66
2023/09/12 13:44:15;;;;;;;;;;;;;;;;;;5024993;28;19920;-67
2023/09/12 13:46:44;;;;;;;;;;;;;;;;;;5049548;28;19974;-66
2023/09/12 13:49:10;;;;;;;;;;;;;;;;;;5031757;28;19927;-66
2023/09/12 13:51:36;;;;;;;;;;;;;;;;;;5053753;28;19925;-66
2023/09/12 13:54:03;;;;;;;;;;;;;;;;;;5030025;28;19956;-66
2023/09/12 13:56:28;;;;;;;;;;;;;;;;;;5037353;28;20693;-67
2023/09/12 13:58:55;;;;;;;;;;;;;;;;;;5048620;28;19979;-66
2023/09/12 14:01:22;;;;;;;;;;;;;;;;;;5051297;28;19931;-66
2023/09/12 14:03:48;;;;;;;;;;;;;;;;;;5038836;28;19921;-66
2023/09/12 14:06:14;;;;;;;;;;;;;;;;;;5041527;28;20280;-66
2023/09/12 14:08:40;;;;;;;;;;;;;;;;;;5050366;28;20358;-66
2023/09/12 14:11:06;;;;;;;;;;;;;;;;;;5015803;28;20050;-66
2023/09/12 14:13:32;;;;;;;;;;;;;;;;;;5043987;28;19921;-66
2023/09/12 14:15:58;;;;;;;;;;;;;;;;;;5040428;28;19929;-66
2023/09/12 14:18:24;;;;;;;;;;;;;;;;;;5053175;28;19921;-66
2023/09/12 14:20:51;;;;;;;;;;;;;;;;;;5043591;28;20385;-66
2023/09/12 14:23:16;;;;;;;;;;;;;;;;;;5050667;28;19924;-67
2023/09/12 14:25:42;;;;;;;;;;;;;;;;;;5043921;28;19925;-67
2023/09/12 14:28:08;;;;;;;;;;;;;;;;;;5042452;28;20345;-66
2023/09/12 14:30:36;;;;;;;;;;;;;;;;;;5053743;28;19924;-67
2023/09/12 14:33:02;;;;;;;;;;;;;;;;;;5045438;28;19932;-66
2023/09/12 14:35:27;;;;;;;;;;;;;;;;;;5049031;28;19921;-67
2023/09/12 14:37:53;;;;;;;;;;;;;;;;;;5045088;28;19921;-66
2023/09/12 14:40:19;;;;;;;;;;;;;;;;;;5050149;28;20623;-66
2023/09/12 14:42:45;;;;;;;;;;;;;;;;;;5050735;28;19924;-67
2023/09/12 14:45:11;;;;;;;;;;;;;;;;;;5051157;28;19921;-66
2023/09/12 14:47:37;;;;;;;;;;;;;;;;;;5040403;28;19928;-66
2023/09/12 14:50:03;;;;;;;;;;;;;;;;;;5060922;28;19954;-66
2023/09/12 14:52:29;;;;;;;;;;;;;;;;;;5045050;28;19978;-68
2023/09/12 14:54:57;;;;;;;;;;;;;;;;;;5034812;28;19928;-66
2023/09/12 14:57:23;;;;;;;;;;;;;;;;;;5047495;28;19921;-66
2023/09/12 14:59:49;;;;;;;;;;;;;;;;;;5047619;28;19920;-66
2023/09/12 15:02:15;;;;;;;;;;;;;;;;;;5049575;28;19978;-67
2023/09/12 15:04:41;;;;;;;;;;;;;;;;;;5045908;28;19996;-67
2023/09/12 15:07:07;;;;;;;;;;;;;;;;;;5045857;28;20972;-67
2023/09/12 15:09:33;;;;;;;;;;;;;;;;;;5024983;28;19928;-67
2023/09/12 15:11:59;;;;;;;;;;;;;;;;;;5049293;28;20062;-67
2023/09/12 15:14:25;;;;;;;;;;;;;;;;;;5047127;28;20008;-67
2023/09/12 15:16:51;;;;;;;;;;;;;;;;;;5030183;28;20005;-67
2023/09/12 15:19:17;;;;;;;;;;;;;;;;;;5045945;28;20078;-67
2023/09/12 15:21:42;;;;;;;;;;;;;;;;;;5048947;28;19952;-67
2023/09/12 15:24:08;;;;;;;;;;;;;;;;;;5048266;28;20064;-67
2023/09/12 15:26:34;;;;;;;;;;;;;;;;;;5046231;28;19929;-67
2023/09/12 15:29:01;;;;;;;;;;;;;;;;;;5049190;28;19921;-67
2023/09/12 15:31:27;;;;;;;;;;;;;;;;;;5046037;28;19935;-67
2023/09/12 15:33:54;;;;;;;;;;;;;;;;;;5051702;28;20485;-67
2023/09/12 15:36:20;;;;;;;;;;;;;;;;;;5049462;28;19927;-67
2023/09/12 15:38:46;;;;;;;;;;;;;;;;;;5016337;28;19925;-67
2023/09/12 15:41:13;;;;;;;;;;;;;;;;;;5041653;28;19948;-67
2023/09/12 15:43:40;;;;;;;;;;;;;;;;;;5049094;28;20406;-67
2023/09/12 15:46:06;;;;;;;;;;;;;;;;;;5050325;28;20332;-67
2023/09/12 15:48:32;;;;;;;;;;;;;;;;;;5053465;28;19928;-67
2023/09/12 15:50:58;;;;;;;;;;;;;;;;;;5051780;28;19921;-67
2023/09/12 15:53:24;;;;;;;;;;;;;;;;;;5047193;28;20450;-67
2023/09/12 15:55:52;;;;;;;;;;;;;;;;;;5040466;28;19932;-67
2023/09/12 15:58:17;;;;;;;;;;;;;;;;;;5046023;28;19920;-67
2023/09/12 16:00:43;;;;;;;;;;;;;;;;;;5042734;28;19983;-67
2023/09/12 16:03:09;;;;;;;;;;;;;;;;;;5048329;28;20434;-67
2023/09/12 16:05:35;;;;;;;;;;;;;;;;;;5052568;28;19967;-67
2023/09/12 16:08:01;;;;;;;;;;;;;;;;;;5042973;28;20017;-67
2023/09/12 16:10:27;;;;;;;;;;;;;;;;;;5032827;28;19936;-67
2023/09/12 16:12:53;;;;;;;;;;;;;;;;;;5056131;28;20336;-67
2023/09/12 16:15:19;;;;;;;;;;;;;;;;;;5050661;28;19982;-67
2023/09/12 16:17:45;;;;;;;;;;;;;;;;;;5046128;28;19925;-67
2023/09/12 16:20:13;;;;;;;;;;;;;;;;;;5051267;28;19975;-68
2023/09/12 16:22:39;;;;;;;;;;;;;;;;;;5052931;28;19932;-68
2023/09/12 16:25:04;;;;;;;;;;;;;;;;;;5044330;28;20082;-67
2023/09/12 16:27:30;;;;;;;;;;;;;;;;;;5043251;28;19928;-67
2023/09/12 16:29:57;;;;;;;;;;;;;;;;;;5049658;28;19924;-67
2023/09/12 16:32:22;;;;;;;;;;;;;;;;;;5033652;28;20448;-66
2023/09/12 16:34:48;;;;;;;;;;;;;;;;;;5049236;28;19929;-66
2023/09/12 16:37:14;;;;;;;;;;;;;;;;;;5016342;28;19991;-66